Grand Island, Florida
Current Conditions -  °F | °C
As of 6:53 PM on Friday 31 Oct 2014 (Local Time) from KLEE Reporting Station
Clear Clear  
Wind Chill: 68°   Ceiling: Unl
Heat Index: 68°   Visibility: 7mi
Dew Point: 48°   Wind: 6mph
Humidity: 49%   Direction: 300°WNW
Pressure: 29.85"   Gusts: NA
Location:  28.88°N, 81.73°W
Report Text: KLEE 312253Z AUTO 30005KT 7SM CLR 20/09 A2985 RMK AO2 SLP107 T02000089
Loading
Personal Weather Stations






























Interactive Weather Map
Tropical Storm Tracking
New forecast layout! Learn more

10-Day Weather Forecast

Advertisements
Track Severe Weather on mobile